首页
METAR-TAF:

METAR-TAF

机场 :

馬林迪, 肯尼亚

纬度: 03-14S, 经度: 040-06E, 海拔: 20米

当前天气观测

该预报发布于48分钟前的08:00 UTC
风速15节,风向
温度 30°C
湿度 62%
气压 1014 hPa
能见度10公里或以上
散云层高于2100英尺

METAR: HKML 160800Z 19015KT 9999 SCT021 30/22 Q1014

时间: 11:48 (08:48 UTC)

预报

该预报发布于3小时和48分钟前的05:00 UTC
预报有效从16日的 06点(UTC)到 17日的 06点(UTC)
风速10节,风向
能见度10公里或以上
散云层高于2200英尺
成为
从 16日的 09点(UTC)到 16日的 12点(UTC)
风速20节,风向
少量云层高于2400英尺
成为
从 16日的 15点(UTC)到 16日的 18点(UTC)
风速10节,风向
成为
从 16日的 22点(UTC)到 17日的 01点(UTC)
少量云层高于2000英尺

TAF: HKML 160500Z 1606/1706 18010KT 9999 SCT022 BECMG 1609/1612 18020KT FEW024 BECMG 1615/1618 18010KT BECMG 1622/1701 FEW020

超过4000个机场的气象观测和天气预报(METAR&TAF报告)。

可查询的气象台以黄色和红色小点在地图上表示。

将鼠标移到小点上方,可查看气象台名称。

然后点击查看天气观测和预报。

如需切换地图:点击带黑十字的绿色按钮放大地图;点击带横线的绿色按钮缩小地图;或者点击绿色箭头查看邻近地区的地图。


METAR-TAF: